sensor_id;sensor_type;location;lat;lon;timestamp;temperature;humidity
66271;DHT22;53063;39.614;8.814;2022-07-25T00:00:39;25.90;73.60
66271;DHT22;53063;39.614;8.814;2022-07-25T00:03:05;25.90;73.60
66271;DHT22;53063;39.614;8.814;2022-07-25T00:05:31;25.90;73.70
66271;DHT22;53063;39.614;8.814;2022-07-25T00:07:57;25.80;74.10
66271;DHT22;53063;39.614;8.814;2022-07-25T00:10:23;25.80;74.10
66271;DHT22;53063;39.614;8.814;2022-07-25T00:12:49;25.70;74.40
66271;DHT22;53063;39.614;8.814;2022-07-25T00:15:15;25.60;74.70
66271;DHT22;53063;39.614;8.814;2022-07-25T00:17:41;25.60;74.80
66271;DHT22;53063;39.614;8.814;2022-07-25T00:20:08;25.60;74.80
66271;DHT22;53063;39.614;8.814;2022-07-25T00:22:34;25.50;74.80
66271;DHT22;53063;39.614;8.814;2022-07-25T00:25:00;25.50;75.00
66271;DHT22;53063;39.614;8.814;2022-07-25T00:27:26;25.50;75.00
66271;DHT22;53063;39.614;8.814;2022-07-25T00:29:52;25.40;75.00
66271;DHT22;53063;39.614;8.814;2022-07-25T00:32:18;25.30;75.20
66271;DHT22;53063;39.614;8.814;2022-07-25T00:34:44;25.20;75.40
66271;DHT22;53063;39.614;8.814;2022-07-25T00:37:09;25.10;75.70
66271;DHT22;53063;39.614;8.814;2022-07-25T00:39:35;25.00;75.60
66271;DHT22;53063;39.614;8.814;2022-07-25T00:42:01;25.00;75.30
66271;DHT22;53063;39.614;8.814;2022-07-25T00:44:30;25.00;75.30
66271;DHT22;53063;39.614;8.814;2022-07-25T00:46:57;24.90;75.50
66271;DHT22;53063;39.614;8.814;2022-07-25T00:49:23;24.80;75.90
66271;DHT22;53063;39.614;8.814;2022-07-25T00:51:51;24.90;76.40
66271;DHT22;53063;39.614;8.814;2022-07-25T00:54:17;24.90;77.00
66271;DHT22;53063;39.614;8.814;2022-07-25T00:56:43;25.00;77.40
66271;DHT22;53063;39.614;8.814;2022-07-25T00:59:09;25.10;77.70
66271;DHT22;53063;39.614;8.814;2022-07-25T01:01:36;25.20;77.60
66271;DHT22;53063;39.614;8.814;2022-07-25T01:04:03;25.10;77.50
66271;DHT22;53063;39.614;8.814;2022-07-25T01:06:30;25.00;77.90
66271;DHT22;53063;39.614;8.814;2022-07-25T01:08:56;24.90;78.10
66271;DHT22;53063;39.614;8.814;2022-07-25T01:11:22;24.90;78.20
66271;DHT22;53063;39.614;8.814;2022-07-25T01:13:49;24.90;78.20
66271;DHT22;53063;39.614;8.814;2022-07-25T01:16:15;24.80;78.40
66271;DHT22;53063;39.614;8.814;2022-07-25T01:18:41;24.80;78.60
66271;DHT22;53063;39.614;8.814;2022-07-25T01:21:07;24.80;78.50
66271;DHT22;53063;39.614;8.814;2022-07-25T01:23:33;24.80;78.50
66271;DHT22;53063;39.614;8.814;2022-07-25T01:25:59;24.80;78.60
66271;DHT22;53063;39.614;8.814;2022-07-25T01:28:26;24.90;78.80
66271;DHT22;53063;39.614;8.814;2022-07-25T01:30:52;24.90;79.10
66271;DHT22;53063;39.614;8.814;2022-07-25T01:33:19;24.80;79.10
66271;DHT22;53063;39.614;8.814;2022-07-25T01:35:46;24.80;79.00
66271;DHT22;53063;39.614;8.814;2022-07-25T01:38:12;24.80;78.90
66271;DHT22;53063;39.614;8.814;2022-07-25T01:40:39;24.80;79.40
66271;DHT22;53063;39.614;8.814;2022-07-25T01:43:05;24.80;79.80
66271;DHT22;53063;39.614;8.814;2022-07-25T01:45:31;24.80;80.10
66271;DHT22;53063;39.614;8.814;2022-07-25T01:47:57;24.70;79.60
66271;DHT22;53063;39.614;8.814;2022-07-25T01:50:24;24.70;79.10
66271;DHT22;53063;39.614;8.814;2022-07-25T01:52:50;24.60;79.00
66271;DHT22;53063;39.614;8.814;2022-07-25T01:55:16;24.50;79.30
66271;DHT22;53063;39.614;8.814;2022-07-25T01:57:42;24.60;79.50
66271;DHT22;53063;39.614;8.814;2022-07-25T02:00:10;24.60;79.20
66271;DHT22;53063;39.614;8.814;2022-07-25T02:02:38;24.50;79.40
66271;DHT22;53063;39.614;8.814;2022-07-25T02:05:05;24.40;79.70
66271;DHT22;53063;39.614;8.814;2022-07-25T02:07:31;24.40;79.80
66271;DHT22;53063;39.614;8.814;2022-07-25T02:09:57;24.40;79.70
66271;DHT22;53063;39.614;8.814;2022-07-25T02:12:23;24.40;79.70
66271;DHT22;53063;39.614;8.814;2022-07-25T02:14:49;24.50;79.80
66271;DHT22;53063;39.614;8.814;2022-07-25T02:17:15;24.50;79.80
66271;DHT22;53063;39.614;8.814;2022-07-25T02:19:41;24.40;79.70
66271;DHT22;53063;39.614;8.814;2022-07-25T02:22:07;24.40;79.60
66271;DHT22;53063;39.614;8.814;2022-07-25T02:24:33;24.30;79.80
66271;DHT22;53063;39.614;8.814;2022-07-25T02:26:59;24.30;79.90
66271;DHT22;53063;39.614;8.814;2022-07-25T02:29:24;24.10;80.20
66271;DHT22;53063;39.614;8.814;2022-07-25T02:31:50;24.20;79.90
66271;DHT22;53063;39.614;8.814;2022-07-25T02:34:17;24.20;79.10
66271;DHT22;53063;39.614;8.814;2022-07-25T02:36:43;24.20;78.20
66271;DHT22;53063;39.614;8.814;2022-07-25T02:39:10;24.30;76.30
66271;DHT22;53063;39.614;8.814;2022-07-25T02:41:37;24.30;74.70
66271;DHT22;53063;39.614;8.814;2022-07-25T02:44:04;24.30;74.00
66271;DHT22;53063;39.614;8.814;2022-07-25T02:46:30;24.20;73.70
66271;DHT22;53063;39.614;8.814;2022-07-25T02:48:55;24.30;73.50
66271;DHT22;53063;39.614;8.814;2022-07-25T02:51:21;24.30;73.40
66271;DHT22;53063;39.614;8.814;2022-07-25T02:53:47;24.30;73.50
66271;DHT22;53063;39.614;8.814;2022-07-25T02:56:13;24.50;73.60
66271;DHT22;53063;39.614;8.814;2022-07-25T02:58:40;24.40;73.50
66271;DHT22;53063;39.614;8.814;2022-07-25T03:01:06;24.50;73.00
66271;DHT22;53063;39.614;8.814;2022-07-25T03:03:32;24.40;72.10
66271;DHT22;53063;39.614;8.814;2022-07-25T03:05:58;24.30;72.00
66271;DHT22;53063;39.614;8.814;2022-07-25T03:08:23;24.30;71.20
66271;DHT22;53063;39.614;8.814;2022-07-25T03:10:49;24.20;71.10
66271;DHT22;53063;39.614;8.814;2022-07-25T03:13:15;24.10;70.70
66271;DHT22;53063;39.614;8.814;2022-07-25T03:15:41;24.10;70.70
66271;DHT22;53063;39.614;8.814;2022-07-25T03:18:07;24.00;70.40
66271;DHT22;53063;39.614;8.814;2022-07-25T03:20:33;24.00;69.60
66271;DHT22;53063;39.614;8.814;2022-07-25T03:22:59;24.00;69.00
66271;DHT22;53063;39.614;8.814;2022-07-25T03:25:25;23.80;68.70
66271;DHT22;53063;39.614;8.814;2022-07-25T03:27:51;23.70;69.00
66271;DHT22;53063;39.614;8.814;2022-07-25T03:30:17;23.60;69.10
66271;DHT22;53063;39.614;8.814;2022-07-25T03:32:43;23.50;69.20
66271;DHT22;53063;39.614;8.814;2022-07-25T03:35:09;23.40;69.30
66271;DHT22;53063;39.614;8.814;2022-07-25T03:37:35;23.30;69.60
66271;DHT22;53063;39.614;8.814;2022-07-25T03:40:01;23.30;69.90
66271;DHT22;53063;39.614;8.814;2022-07-25T03:42:27;23.10;70.50
66271;DHT22;53063;39.614;8.814;2022-07-25T03:44:53;23.00;70.90
66271;DHT22;53063;39.614;8.814;2022-07-25T03:47:19;23.00;71.20
66271;DHT22;53063;39.614;8.814;2022-07-25T03:49:45;23.00;71.40
66271;DHT22;53063;39.614;8.814;2022-07-25T03:52:10;22.90;71.70
66271;DHT22;53063;39.614;8.814;2022-07-25T03:54:36;22.90;71.90
66271;DHT22;53063;39.614;8.814;2022-07-25T03:57:02;22.80;72.10
66271;DHT22;53063;39.614;8.814;2022-07-25T03:59:30;22.80;72.40
66271;DHT22;53063;39.614;8.814;2022-07-25T04:01:55;22.70;72.10
66271;DHT22;53063;39.614;8.814;2022-07-25T04:04:22;22.80;71.90
66271;DHT22;53063;39.614;8.814;2022-07-25T04:06:47;22.80;71.50
66271;DHT22;53063;39.614;8.814;2022-07-25T04:09:13;22.90;71.00
66271;DHT22;53063;39.614;8.814;2022-07-25T04:11:40;23.10;70.30
66271;DHT22;53063;39.614;8.814;2022-07-25T04:14:06;23.20;70.00
66271;DHT22;53063;39.614;8.814;2022-07-25T04:16:33;23.30;69.00
66271;DHT22;53063;39.614;8.814;2022-07-25T04:18:59;23.40;68.60
66271;DHT22;53063;39.614;8.814;2022-07-25T04:21:25;23.40;68.50
66271;DHT22;53063;39.614;8.814;2022-07-25T04:23:51;23.40;68.20
66271;DHT22;53063;39.614;8.814;2022-07-25T04:26:18;23.40;68.20
66271;DHT22;53063;39.614;8.814;2022-07-25T04:28:44;23.20;68.20
66271;DHT22;53063;39.614;8.814;2022-07-25T04:31:10;23.30;67.40
66271;DHT22;53063;39.614;8.814;2022-07-25T04:33:37;23.40;67.20
66271;DHT22;53063;39.614;8.814;2022-07-25T04:36:03;23.50;66.70
66271;DHT22;53063;39.614;8.814;2022-07-25T04:38:29;23.30;67.20
66271;DHT22;53063;39.614;8.814;2022-07-25T04:40:55;23.20;67.30
66271;DHT22;53063;39.614;8.814;2022-07-25T04:43:21;23.20;67.30
66271;DHT22;53063;39.614;8.814;2022-07-25T04:45:47;23.40;66.30
66271;DHT22;53063;39.614;8.814;2022-07-25T04:48:13;23.50;65.30
66271;DHT22;53063;39.614;8.814;2022-07-25T04:50:39;23.50;65.40
66271;DHT22;53063;39.614;8.814;2022-07-25T04:53:05;23.50;65.90
66271;DHT22;53063;39.614;8.814;2022-07-25T04:55:32;23.70;65.60
66271;DHT22;53063;39.614;8.814;2022-07-25T04:57:58;23.80;64.60
66271;DHT22;53063;39.614;8.814;2022-07-25T05:00:25;23.90;64.20
66271;DHT22;53063;39.614;8.814;2022-07-25T05:02:51;23.90;64.40
66271;DHT22;53063;39.614;8.814;2022-07-25T05:05:17;24.00;64.70
66271;DHT22;53063;39.614;8.814;2022-07-25T05:07:43;24.10;64.30
66271;DHT22;53063;39.614;8.814;2022-07-25T05:10:09;24.10;63.50
66271;DHT22;53063;39.614;8.814;2022-07-25T05:12:35;24.20;63.30
66271;DHT22;53063;39.614;8.814;2022-07-25T05:15:03;24.30;62.70
66271;DHT22;53063;39.614;8.814;2022-07-25T05:17:29;24.30;62.60
66271;DHT22;53063;39.614;8.814;2022-07-25T05:19:56;24.40;63.10
66271;DHT22;53063;39.614;8.814;2022-07-25T05:22:23;24.40;63.60
66271;DHT22;53063;39.614;8.814;2022-07-25T05:24:49;24.50;63.90
66271;DHT22;53063;39.614;8.814;2022-07-25T05:27:15;24.50;63.00
66271;DHT22;53063;39.614;8.814;2022-07-25T05:29:41;24.70;61.50
66271;DHT22;53063;39.614;8.814;2022-07-25T05:32:07;24.90;61.00
66271;DHT22;53063;39.614;8.814;2022-07-25T05:34:33;24.90;60.10
66271;DHT22;53063;39.614;8.814;2022-07-25T05:36:59;25.00;60.40
66271;DHT22;53063;39.614;8.814;2022-07-25T05:39:25;25.00;60.30
66271;DHT22;53063;39.614;8.814;2022-07-25T05:41:51;25.10;59.90
66271;DHT22;53063;39.614;8.814;2022-07-25T05:44:17;25.10;60.30
66271;DHT22;53063;39.614;8.814;2022-07-25T05:46:43;25.20;60.50
66271;DHT22;53063;39.614;8.814;2022-07-25T05:49:09;25.20;60.60
66271;DHT22;53063;39.614;8.814;2022-07-25T05:51:35;25.30;60.00
66271;DHT22;53063;39.614;8.814;2022-07-25T05:54:01;25.50;59.40
66271;DHT22;53063;39.614;8.814;2022-07-25T05:56:27;25.70;59.20
66271;DHT22;53063;39.614;8.814;2022-07-25T05:58:54;25.90;58.50
66271;DHT22;53063;39.614;8.814;2022-07-25T06:01:21;27.00;57.40
66271;DHT22;53063;39.614;8.814;2022-07-25T06:03:47;27.80;54.40
66271;DHT22;53063;39.614;8.814;2022-07-25T06:06:13;28.50;51.60
66271;DHT22;53063;39.614;8.814;2022-07-25T06:08:39;29.40;50.10
66271;DHT22;53063;39.614;8.814;2022-07-25T06:11:06;29.70;48.80
66271;DHT22;53063;39.614;8.814;2022-07-25T06:13:33;29.30;49.10
66271;DHT22;53063;39.614;8.814;2022-07-25T06:15:59;28.30;51.20
66271;DHT22;53063;39.614;8.814;2022-07-25T06:18:25;27.80;52.60
66271;DHT22;53063;39.614;8.814;2022-07-25T06:20:51;27.70;53.20
66271;DHT22;53063;39.614;8.814;2022-07-25T06:23:17;27.70;53.40
66271;DHT22;53063;39.614;8.814;2022-07-25T06:25:44;27.90;53.00
66271;DHT22;53063;39.614;8.814;2022-07-25T06:28:12;27.90;52.30
66271;DHT22;53063;39.614;8.814;2022-07-25T06:30:43;28.00;52.80
66271;DHT22;53063;39.614;8.814;2022-07-25T06:33:10;28.20;52.60
66271;DHT22;53063;39.614;8.814;2022-07-25T06:35:36;28.30;52.60
66271;DHT22;53063;39.614;8.814;2022-07-25T06:38:02;28.40;52.00
66271;DHT22;53063;39.614;8.814;2022-07-25T06:40:29;28.50;52.30
66271;DHT22;53063;39.614;8.814;2022-07-25T06:42:55;28.70;51.10
66271;DHT22;53063;39.614;8.814;2022-07-25T06:45:21;28.80;51.30
66271;DHT22;53063;39.614;8.814;2022-07-25T06:47:48;29.00;50.30
66271;DHT22;53063;39.614;8.814;2022-07-25T06:50:17;29.20;49.60
66271;DHT22;53063;39.614;8.814;2022-07-25T06:52:44;29.20;49.10
66271;DHT22;53063;39.614;8.814;2022-07-25T06:55:12;29.20;49.20
66271;DHT22;53063;39.614;8.814;2022-07-25T06:57:38;29.30;47.90
66271;DHT22;53063;39.614;8.814;2022-07-25T07:00:06;29.60;48.50
66271;DHT22;53063;39.614;8.814;2022-07-25T07:02:45;29.70;47.90
66271;DHT22;53063;39.614;8.814;2022-07-25T07:05:11;29.80;47.90
66271;DHT22;53063;39.614;8.814;2022-07-25T07:07:37;30.00;47.10
66271;DHT22;53063;39.614;8.814;2022-07-25T07:10:03;30.00;47.00
66271;DHT22;53063;39.614;8.814;2022-07-25T07:12:29;30.40;46.00
66271;DHT22;53063;39.614;8.814;2022-07-25T07:14:55;30.50;44.50
66271;DHT22;53063;39.614;8.814;2022-07-25T07:17:21;30.80;45.10
66271;DHT22;53063;39.614;8.814;2022-07-25T07:19:47;30.80;45.70
66271;DHT22;53063;39.614;8.814;2022-07-25T07:22:13;31.00;44.70
66271;DHT22;53063;39.614;8.814;2022-07-25T07:24:39;31.20;43.80
66271;DHT22;53063;39.614;8.814;2022-07-25T07:27:05;31.30;43.80
66271;DHT22;53063;39.614;8.814;2022-07-25T07:29:30;31.40;42.30
66271;DHT22;53063;39.614;8.814;2022-07-25T07:31:56;31.40;41.20
66271;DHT22;53063;39.614;8.814;2022-07-25T07:34:22;31.40;40.70
66271;DHT22;53063;39.614;8.814;2022-07-25T07:36:48;31.70;40.30
66271;DHT22;53063;39.614;8.814;2022-07-25T07:39:14;31.80;40.00
66271;DHT22;53063;39.614;8.814;2022-07-25T07:41:41;31.90;39.50
66271;DHT22;53063;39.614;8.814;2022-07-25T07:44:07;32.10;39.90
66271;DHT22;53063;39.614;8.814;2022-07-25T07:46:32;32.20;38.80
66271;DHT22;53063;39.614;8.814;2022-07-25T07:48:58;32.50;38.60
66271;DHT22;53063;39.614;8.814;2022-07-25T07:51:24;32.90;39.00
66271;DHT22;53063;39.614;8.814;2022-07-25T07:53:50;34.10;37.60
66271;DHT22;53063;39.614;8.814;2022-07-25T07:56:55;35.00;36.10
66271;DHT22;53063;39.614;8.814;2022-07-25T07:59:21;34.40;36.80
66271;DHT22;53063;39.614;8.814;2022-07-25T08:01:46;33.90;36.60
66271;DHT22;53063;39.614;8.814;2022-07-25T08:04:12;33.80;37.10
66271;DHT22;53063;39.614;8.814;2022-07-25T08:06:38;34.00;36.90
66271;DHT22;53063;39.614;8.814;2022-07-25T08:09:05;34.60;36.30
66271;DHT22;53063;39.614;8.814;2022-07-25T08:11:31;34.30;36.40
66271;DHT22;53063;39.614;8.814;2022-07-25T08:13:57;33.90;36.60
66271;DHT22;53063;39.614;8.814;2022-07-25T08:16:22;34.30;37.10
66271;DHT22;53063;39.614;8.814;2022-07-25T08:18:48;34.60;34.60
66271;DHT22;53063;39.614;8.814;2022-07-25T08:21:14;34.30;35.50
66271;DHT22;53063;39.614;8.814;2022-07-25T08:23:40;34.20;33.60
66271;DHT22;53063;39.614;8.814;2022-07-25T08:26:06;34.20;34.60
66271;DHT22;53063;39.614;8.814;2022-07-25T08:28:32;34.60;33.30
66271;DHT22;53063;39.614;8.814;2022-07-25T08:30:58;34.80;32.90
66271;DHT22;53063;39.614;8.814;2022-07-25T08:33:24;34.80;33.10
66271;DHT22;53063;39.614;8.814;2022-07-25T08:35:52;34.70;32.50
66271;DHT22;53063;39.614;8.814;2022-07-25T08:38:23;34.60;31.80
66271;DHT22;53063;39.614;8.814;2022-07-25T08:40:51;35.00;31.50
66271;DHT22;53063;39.614;8.814;2022-07-25T08:43:17;34.80;31.40
66271;DHT22;53063;39.614;8.814;2022-07-25T08:45:54;35.30;32.40
66271;DHT22;53063;39.614;8.814;2022-07-25T08:48:23;35.40;31.50
66271;DHT22;53063;39.614;8.814;2022-07-25T08:50:50;35.70;29.20
66271;DHT22;53063;39.614;8.814;2022-07-25T08:53:17;35.80;30.00
66271;DHT22;53063;39.614;8.814;2022-07-25T08:55:45;35.90;30.00
66271;DHT22;53063;39.614;8.814;2022-07-25T08:58:13;35.90;29.40
66271;DHT22;53063;39.614;8.814;2022-07-25T09:00:41;36.00;29.00
66271;DHT22;53063;39.614;8.814;2022-07-25T09:03:07;36.50;28.30
66271;DHT22;53063;39.614;8.814;2022-07-25T09:05:34;36.80;28.20
66271;DHT22;53063;39.614;8.814;2022-07-25T09:08:12;36.80;28.00
66271;DHT22;53063;39.614;8.814;2022-07-25T09:10:38;36.50;28.10
66271;DHT22;53063;39.614;8.814;2022-07-25T09:13:09;36.80;28.00
66271;DHT22;53063;39.614;8.814;2022-07-25T09:15:58;37.00;28.90
66271;DHT22;53063;39.614;8.814;2022-07-25T09:18:26;36.90;29.30
66271;DHT22;53063;39.614;8.814;2022-07-25T09:20:54;37.10;28.70
66271;DHT22;53063;39.614;8.814;2022-07-25T09:26:15;37.10;28.90
66271;DHT22;53063;39.614;8.814;2022-07-25T09:28:46;37.50;26.60
66271;DHT22;53063;39.614;8.814;2022-07-25T09:31:12;37.70;27.10
66271;DHT22;53063;39.614;8.814;2022-07-25T09:33:53;37.40;26.80
66271;DHT22;53063;39.614;8.814;2022-07-25T09:36:21;37.20;28.40
66271;DHT22;53063;39.614;8.814;2022-07-25T09:38:55;37.60;28.10
66271;DHT22;53063;39.614;8.814;2022-07-25T09:41:21;37.60;28.00
66271;DHT22;53063;39.614;8.814;2022-07-25T09:43:47;37.10;27.80
66271;DHT22;53063;39.614;8.814;2022-07-25T09:46:13;37.40;27.70
66271;DHT22;53063;39.614;8.814;2022-07-25T09:48:43;37.70;27.40
66271;DHT22;53063;39.614;8.814;2022-07-25T09:51:09;38.10;27.90
66271;DHT22;53063;39.614;8.814;2022-07-25T09:53:35;38.30;28.10
66271;DHT22;53063;39.614;8.814;2022-07-25T09:56:01;38.10;28.40
66271;DHT22;53063;39.614;8.814;2022-07-25T09:58:28;38.20;28.00
66271;DHT22;53063;39.614;8.814;2022-07-25T10:01:04;38.20;28.20
66271;DHT22;53063;39.614;8.814;2022-07-25T10:04:04;38.40;27.50
66271;DHT22;53063;39.614;8.814;2022-07-25T10:06:52;38.30;28.80
66271;DHT22;53063;39.614;8.814;2022-07-25T10:09:22;38.50;28.40
66271;DHT22;53063;39.614;8.814;2022-07-25T10:12:10;38.60;28.00
66271;DHT22;53063;39.614;8.814;2022-07-25T10:14:38;39.10;26.80
66271;DHT22;53063;39.614;8.814;2022-07-25T10:17:04;39.10;27.10
66271;DHT22;53063;39.614;8.814;2022-07-25T10:19:47;39.40;27.30
66271;DHT22;53063;39.614;8.814;2022-07-25T10:22:13;39.50;25.80
66271;DHT22;53063;39.614;8.814;2022-07-25T10:24:44;39.60;26.50
66271;DHT22;53063;39.614;8.814;2022-07-25T10:27:11;39.80;26.50
66271;DHT22;53063;39.614;8.814;2022-07-25T10:29:41;39.30;27.00
66271;DHT22;53063;39.614;8.814;2022-07-25T10:32:08;39.20;26.40
66271;DHT22;53063;39.614;8.814;2022-07-25T10:34:35;39.40;26.20
66271;DHT22;53063;39.614;8.814;2022-07-25T10:37:13;39.50;26.50
66271;DHT22;53063;39.614;8.814;2022-07-25T10:39:41;39.80;26.00
66271;DHT22;53063;39.614;8.814;2022-07-25T10:42:17;39.90;26.50
66271;DHT22;53063;39.614;8.814;2022-07-25T10:44:54;39.90;25.90
66271;DHT22;53063;39.614;8.814;2022-07-25T10:47:26;39.70;26.50
66271;DHT22;53063;39.614;8.814;2022-07-25T10:49:57;39.60;26.00
66271;DHT22;53063;39.614;8.814;2022-07-25T10:52:27;39.90;25.90
66271;DHT22;53063;39.614;8.814;2022-07-25T10:57:20;40.10;25.60
66271;DHT22;53063;39.614;8.814;2022-07-25T10:59:46;40.10;25.90
66271;DHT22;53063;39.614;8.814;2022-07-25T11:02:12;40.30;25.40
66271;DHT22;53063;39.614;8.814;2022-07-25T11:04:42;40.60;25.60
66271;DHT22;53063;39.614;8.814;2022-07-25T11:07:10;40.40;25.70
66271;DHT22;53063;39.614;8.814;2022-07-25T11:09:37;40.50;25.10
66271;DHT22;53063;39.614;8.814;2022-07-25T11:12:03;40.50;25.10
66271;DHT22;53063;39.614;8.814;2022-07-25T11:14:31;40.50;25.20
66271;DHT22;53063;39.614;8.814;2022-07-25T11:17:13;40.90;25.10
66271;DHT22;53063;39.614;8.814;2022-07-25T11:19:41;40.60;25.10
66271;DHT22;53063;39.614;8.814;2022-07-25T11:22:07;40.60;24.40
66271;DHT22;53063;39.614;8.814;2022-07-25T11:24:44;40.60;25.20
66271;DHT22;53063;39.614;8.814;2022-07-25T11:27:24;40.80;25.00
66271;DHT22;53063;39.614;8.814;2022-07-25T11:29:52;41.10;24.80
66271;DHT22;53063;39.614;8.814;2022-07-25T11:32:18;41.20;24.80
66271;DHT22;53063;39.614;8.814;2022-07-25T11:34:51;40.70;24.80
66271;DHT22;53063;39.614;8.814;2022-07-25T11:37:18;41.00;24.90
66271;DHT22;53063;39.614;8.814;2022-07-25T11:39:46;41.00;24.70
66271;DHT22;53063;39.614;8.814;2022-07-25T11:42:17;40.40;25.60
66271;DHT22;53063;39.614;8.814;2022-07-25T11:44:49;40.40;25.80
66271;DHT22;53063;39.614;8.814;2022-07-25T11:47:25;40.50;24.70
66271;DHT22;53063;39.614;8.814;2022-07-25T11:49:52;40.90;24.60
66271;DHT22;53063;39.614;8.814;2022-07-25T11:52:20;41.20;24.20
66271;DHT22;53063;39.614;8.814;2022-07-25T11:54:52;41.20;24.60
66271;DHT22;53063;39.614;8.814;2022-07-25T11:57:23;40.70;24.40
66271;DHT22;53063;39.614;8.814;2022-07-25T11:59:50;40.90;24.50
66271;DHT22;53063;39.614;8.814;2022-07-25T12:02:27;41.50;23.90
66271;DHT22;53063;39.614;8.814;2022-07-25T12:04:57;41.50;23.60
66271;DHT22;53063;39.614;8.814;2022-07-25T12:07:53;41.30;24.00
66271;DHT22;53063;39.614;8.814;2022-07-25T12:10:30;41.40;24.20
66271;DHT22;53063;39.614;8.814;2022-07-25T12:12:57;41.40;23.90
66271;DHT22;53063;39.614;8.814;2022-07-25T12:15:27;41.20;24.20
66271;DHT22;53063;39.614;8.814;2022-07-25T12:17:54;41.20;24.60
66271;DHT22;53063;39.614;8.814;2022-07-25T12:20:23;41.20;25.00
66271;DHT22;53063;39.614;8.814;2022-07-25T12:22:52;41.30;24.60
66271;DHT22;53063;39.614;8.814;2022-07-25T12:25:18;40.80;25.30
66271;DHT22;53063;39.614;8.814;2022-07-25T12:27:45;41.10;24.70
66271;DHT22;53063;39.614;8.814;2022-07-25T12:30:11;41.10;23.40
66271;DHT22;53063;39.614;8.814;2022-07-25T12:32:38;40.90;23.50
66271;DHT22;53063;39.614;8.814;2022-07-25T12:35:06;41.10;22.80
66271;DHT22;53063;39.614;8.814;2022-07-25T12:37:32;41.10;23.50
66271;DHT22;53063;39.614;8.814;2022-07-25T12:39:58;41.10;23.80
66271;DHT22;53063;39.614;8.814;2022-07-25T12:42:25;41.00;23.30
66271;DHT22;53063;39.614;8.814;2022-07-25T12:44:51;41.00;24.40
66271;DHT22;53063;39.614;8.814;2022-07-25T12:47:17;40.90;23.20
66271;DHT22;53063;39.614;8.814;2022-07-25T12:49:43;40.80;23.90
66271;DHT22;53063;39.614;8.814;2022-07-25T12:52:09;40.80;23.30
66271;DHT22;53063;39.614;8.814;2022-07-25T12:54:35;40.90;23.10
66271;DHT22;53063;39.614;8.814;2022-07-25T12:57:01;40.80;23.10
66271;DHT22;53063;39.614;8.814;2022-07-25T12:59:27;40.70;22.80
66271;DHT22;53063;39.614;8.814;2022-07-25T13:01:53;40.60;22.70
66271;DHT22;53063;39.614;8.814;2022-07-25T13:04:19;40.70;23.10
66271;DHT22;53063;39.614;8.814;2022-07-25T13:06:45;40.50;23.80
66271;DHT22;53063;39.614;8.814;2022-07-25T13:09:11;40.40;22.80
66271;DHT22;53063;39.614;8.814;2022-07-25T13:11:37;40.30;23.90
66271;DHT22;53063;39.614;8.814;2022-07-25T13:14:02;40.40;23.60
66271;DHT22;53063;39.614;8.814;2022-07-25T13:16:28;40.20;24.10
66271;DHT22;53063;39.614;8.814;2022-07-25T13:18:54;40.10;23.70
66271;DHT22;53063;39.614;8.814;2022-07-25T13:21:20;40.10;23.10
66271;DHT22;53063;39.614;8.814;2022-07-25T13:23:47;39.90;23.30
66271;DHT22;53063;39.614;8.814;2022-07-25T13:26:12;39.80;24.30
66271;DHT22;53063;39.614;8.814;2022-07-25T13:28:38;39.90;24.10
66271;DHT22;53063;39.614;8.814;2022-07-25T13:31:04;39.90;24.10
66271;DHT22;53063;39.614;8.814;2022-07-25T13:33:32;39.50;23.80
66271;DHT22;53063;39.614;8.814;2022-07-25T13:35:58;39.30;25.40
66271;DHT22;53063;39.614;8.814;2022-07-25T13:38:24;39.20;24.40
66271;DHT22;53063;39.614;8.814;2022-07-25T13:40:50;39.10;24.90
66271;DHT22;53063;39.614;8.814;2022-07-25T13:43:16;39.10;25.70
66271;DHT22;53063;39.614;8.814;2022-07-25T13:45:42;39.20;26.30
66271;DHT22;53063;39.614;8.814;2022-07-25T13:48:08;39.20;26.00
66271;DHT22;53063;39.614;8.814;2022-07-25T13:50:34;39.10;26.20
66271;DHT22;53063;39.614;8.814;2022-07-25T13:53:00;39.10;26.60
66271;DHT22;53063;39.614;8.814;2022-07-25T13:55:30;38.90;26.00
66271;DHT22;53063;39.614;8.814;2022-07-25T13:57:56;38.70;26.50
66271;DHT22;53063;39.614;8.814;2022-07-25T14:00:22;38.60;26.50
66271;DHT22;53063;39.614;8.814;2022-07-25T14:02:49;38.60;26.40
66271;DHT22;53063;39.614;8.814;2022-07-25T14:05:15;38.50;27.00
66271;DHT22;53063;39.614;8.814;2022-07-25T14:07:41;38.40;27.20
66271;DHT22;53063;39.614;8.814;2022-07-25T14:10:08;38.20;27.10
66271;DHT22;53063;39.614;8.814;2022-07-25T14:12:35;38.10;27.50
66271;DHT22;53063;39.614;8.814;2022-07-25T14:15:01;38.20;27.90
66271;DHT22;53063;39.614;8.814;2022-07-25T14:17:28;38.10;27.30
66271;DHT22;53063;39.614;8.814;2022-07-25T14:19:54;38.10;27.20
66271;DHT22;53063;39.614;8.814;2022-07-25T14:22:20;38.00;27.10
66271;DHT22;53063;39.614;8.814;2022-07-25T14:24:46;37.90;27.70
66271;DHT22;53063;39.614;8.814;2022-07-25T14:27:13;37.90;27.50
66271;DHT22;53063;39.614;8.814;2022-07-25T14:29:39;37.80;27.40
66271;DHT22;53063;39.614;8.814;2022-07-25T14:32:06;37.70;27.70
66271;DHT22;53063;39.614;8.814;2022-07-25T14:34:36;37.50;28.10
66271;DHT22;53063;39.614;8.814;2022-07-25T14:37:06;37.40;28.10
66271;DHT22;53063;39.614;8.814;2022-07-25T14:39:32;37.50;27.60
66271;DHT22;53063;39.614;8.814;2022-07-25T14:41:58;37.50;27.50
66271;DHT22;53063;39.614;8.814;2022-07-25T14:44:25;37.40;27.40
66271;DHT22;53063;39.614;8.814;2022-07-25T14:46:54;37.30;27.80
66271;DHT22;53063;39.614;8.814;2022-07-25T14:49:22;37.30;28.00
66271;DHT22;53063;39.614;8.814;2022-07-25T14:51:48;37.20;28.00
66271;DHT22;53063;39.614;8.814;2022-07-25T14:54:15;37.20;27.70
66271;DHT22;53063;39.614;8.814;2022-07-25T14:56:42;37.20;28.20
66271;DHT22;53063;39.614;8.814;2022-07-25T14:59:08;37.10;28.30
66271;DHT22;53063;39.614;8.814;2022-07-25T15:01:34;37.10;27.60
66271;DHT22;53063;39.614;8.814;2022-07-25T15:04:00;37.00;27.80
66271;DHT22;53063;39.614;8.814;2022-07-25T15:06:26;37.00;28.40
66271;DHT22;53063;39.614;8.814;2022-07-25T15:08:52;37.10;28.20
66271;DHT22;53063;39.614;8.814;2022-07-25T15:11:21;37.00;28.00
66271;DHT22;53063;39.614;8.814;2022-07-25T15:13:48;36.90;27.80
66271;DHT22;53063;39.614;8.814;2022-07-25T15:16:15;36.70;27.80
66271;DHT22;53063;39.614;8.814;2022-07-25T15:18:41;36.70;28.40
66271;DHT22;53063;39.614;8.814;2022-07-25T15:21:09;36.70;27.20
66271;DHT22;53063;39.614;8.814;2022-07-25T15:23:35;36.50;27.50
66271;DHT22;53063;39.614;8.814;2022-07-25T15:26:02;36.50;28.70
66271;DHT22;53063;39.614;8.814;2022-07-25T15:28:28;36.60;28.20
66271;DHT22;53063;39.614;8.814;2022-07-25T15:30:55;36.60;27.80
66271;DHT22;53063;39.614;8.814;2022-07-25T15:33:21;36.50;28.80
66271;DHT22;53063;39.614;8.814;2022-07-25T15:35:47;36.50;28.30